Time;durP1;ratioP1;P1;durP2;ratioP2;P2;SDS_P1;SDS_P2;PMS_P1;PMS_P2;Temp;Humidity;BMP_temperature;BMP_pressure;BME280_temperature;BME280_humidity;BME280_pressure;Samples;Min_cycle;Max_cycle;Signal;HPM_P1;HPM_P2
2021/10/14 00:04:03;;;;;;;43.30;25.00;;;;;;;7.83;69.20;99585.63;234570;1204;139037;-59
2021/10/14 00:09:06;;;;;;;40.00;22.90;;;;;;;7.79;69.39;99581.92;234592;1203;139688;-60
2021/10/14 00:14:09;;;;;;;40.90;23.20;;;;;;;7.74;69.35;99582.30;234638;1204;140160;-59
2021/10/14 00:19:12;;;;;;;39.30;23.10;;;;;;;7.70;69.32;99582.27;234607;1204;139467;-61
2021/10/14 00:24:15;;;;;;;38.60;21.80;;;;;;;7.71;69.33;99581.55;234295;1204;138964;-59
2021/10/14 00:29:18;;;;;;;40.70;23.40;;;;;;;7.68;69.34;99579.74;234512;1204;138646;-58
2021/10/14 00:34:21;;;;;;;41.40;23.00;;;;;;;7.66;69.43;99578.39;234770;1203;139019;-62
2021/10/14 00:39:25;;;;;;;38.60;22.60;;;;;;;7.63;69.43;99574.64;234720;1203;139319;-59
2021/10/14 00:44:42;;;;;;;37.50;21.10;;;;;;;7.59;69.54;99573.54;234641;1203;138933;-60
2021/10/14 00:49:45;;;;;;;37.20;21.60;;;;;;;7.59;69.49;99577.30;234633;1203;139534;-59
2021/10/14 00:54:52;;;;;;;36.20;23.10;;;;;;;7.59;69.48;99586.63;234198;1204;139127;-57
2021/10/14 00:59:55;;;;;;;38.50;22.20;;;;;;;7.59;69.52;99585.94;233904;1204;138386;-57
2021/10/14 01:04:59;;;;;;;39.00;23.30;;;;;;;7.54;69.58;99590.53;234610;1204;138613;-60
2021/10/14 01:10:03;;;;;;;39.50;23.10;;;;;;;7.49;69.57;99584.02;234448;1204;138749;-62
2021/10/14 01:15:26;;;;;;;38.40;22.80;;;;;;;7.47;69.70;99586.08;234234;1204;138753;-60
2021/10/14 01:20:29;;;;;;;42.80;23.50;;;;;;;7.44;69.71;99587.62;233822;1204;139787;-61
2021/10/14 01:25:32;;;;;;;39.40;23.70;;;;;;;7.40;69.73;99588.13;234473;1203;139194;-61
2021/10/14 01:30:35;;;;;;;41.30;23.00;;;;;;;7.38;69.93;99594.22;234495;1204;138675;-58
2021/10/14 01:36:00;;;;;;;40.30;23.20;;;;;;;7.34;70.00;99585.35;234615;1204;138909;-59
2021/10/14 01:41:03;;;;;;;38.90;24.40;;;;;;;7.33;70.06;99590.34;234345;1204;139141;-61
2021/10/14 01:46:06;;;;;;;37.50;23.20;;;;;;;7.33;70.07;99595.08;234760;1204;139726;-61
2021/10/14 01:51:10;;;;;;;39.70;23.20;;;;;;;7.34;70.13;99597.70;234606;1204;138841;-58
2021/10/14 01:56:13;;;;;;;38.60;22.60;;;;;;;7.35;70.16;99602.42;234613;1204;139216;-60
2021/10/14 02:01:16;;;;;;;40.80;24.00;;;;;;;7.35;70.20;99609.30;234635;1203;138717;-62
2021/10/14 02:06:20;;;;;;;35.00;21.60;;;;;;;7.39;70.34;99617.10;234306;1205;139462;-59
2021/10/14 02:11:23;;;;;;;36.30;22.40;;;;;;;7.42;70.12;99624.06;234640;1204;139951;-61
2021/10/14 02:16:26;;;;;;;40.10;23.50;;;;;;;7.43;70.14;99618.02;234315;1204;138509;-60
2021/10/14 02:21:29;;;;;;;39.60;24.90;;;;;;;7.43;70.11;99612.37;234651;1204;139050;-59
2021/10/14 02:26:32;;;;;;;40.80;24.50;;;;;;;7.42;70.18;99613.14;234241;1204;138822;-59
2021/10/14 02:31:35;;;;;;;44.00;25.90;;;;;;;7.41;70.26;99610.85;234622;1204;138690;-62
2021/10/14 02:36:38;;;;;;;44.80;26.30;;;;;;;7.44;70.16;99615.66;234510;1205;139762;-61
2021/10/14 02:41:41;;;;;;;45.30;27.10;;;;;;;7.48;70.15;99624.31;234630;1204;139351;-61
2021/10/14 02:46:44;;;;;;;46.20;25.50;;;;;;;7.51;70.22;99628.43;234735;1204;138715;-61
2021/10/14 02:51:48;;;;;;;44.90;27.20;;;;;;;7.51;70.19;99629.34;234655;1204;138334;-62
2021/10/14 02:56:51;;;;;;;50.50;27.40;;;;;;;7.44;69.92;99628.20;234344;1205;138406;-59
2021/10/14 03:01:54;;;;;;;52.00;27.00;;;;;;;7.39;70.17;99631.77;234054;1204;139521;-61
2021/10/14 03:06:57;;;;;;;47.60;26.60;;;;;;;7.39;70.06;99634.78;234545;1205;139479;-60
2021/10/14 03:12:00;;;;;;;39.00;24.50;;;;;;;7.38;70.04;99634.96;233757;1204;139534;-58
2021/10/14 03:17:03;;;;;;;36.60;24.40;;;;;;;7.30;69.90;99644.63;234665;1204;140826;-58
2021/10/14 03:22:06;;;;;;;46.10;25.80;;;;;;;7.23;69.99;99646.88;234461;1203;139275;-59
2021/10/14 03:27:09;;;;;;;43.60;24.90;;;;;;;7.13;69.93;99651.80;234718;1203;138660;-60
2021/10/14 03:32:12;;;;;;;39.10;23.90;;;;;;;7.11;70.00;99651.36;234430;1203;141463;-59
2021/10/14 03:37:16;;;;;;;42.60;25.40;;;;;;;7.04;69.83;99658.86;234612;1204;139071;-61
2021/10/14 03:42:21;;;;;;;41.20;23.80;;;;;;;6.96;69.99;99664.81;234622;1204;139748;-65
2021/10/14 03:47:24;;;;;;;36.90;23.50;;;;;;;6.94;70.09;99671.61;234706;1203;139016;-65
2021/10/14 03:52:27;;;;;;;37.20;21.50;;;;;;;6.85;69.96;99674.91;234747;1197;139236;-59
2021/10/14 03:57:30;;;;;;;40.10;23.80;;;;;;;6.77;69.92;99678.73;234435;1204;138947;-60
2021/10/14 04:02:33;;;;;;;37.40;23.90;;;;;;;6.76;69.99;99682.83;233952;1204;138934;-63
2021/10/14 04:07:36;;;;;;;38.60;21.80;;;;;;;6.76;70.08;99681.92;234644;1204;138901;-60
2021/10/14 04:12:39;;;;;;;40.50;22.70;;;;;;;6.68;69.84;99685.40;234113;1203;138715;-61
2021/10/14 04:17:42;;;;;;;40.00;21.70;;;;;;;6.59;69.93;99684.48;234611;1204;138647;-66
2021/10/14 04:22:45;;;;;;;36.40;22.00;;;;;;;6.60;69.93;99689.73;234325;1204;139897;-59
2021/10/14 04:27:48;;;;;;;34.50;21.60;;;;;;;6.61;70.07;99696.23;234656;1204;139112;-60
2021/10/14 04:32:51;;;;;;;37.20;22.80;;;;;;;6.60;70.11;99705.77;234367;1203;138952;-58
2021/10/14 04:37:54;;;;;;;37.90;23.70;;;;;;;6.59;70.04;99708.48;234073;1203;139170;-65
2021/10/14 04:42:58;;;;;;;33.20;23.10;;;;;;;6.54;70.03;99715.89;234495;1203;138906;-62
2021/10/14 04:48:01;;;;;;;77.30;48.30;;;;;;;6.53;70.37;99717.84;234377;1203;139347;-63
2021/10/14 04:53:04;;;;;;;35.50;24.10;;;;;;;6.73;70.51;99723.13;234674;1203;139214;-63
2021/10/14 04:58:07;;;;;;;35.30;23.50;;;;;;;6.83;70.14;99729.48;234795;1203;138162;-63
2021/10/14 05:03:10;;;;;;;33.20;21.30;;;;;;;6.80;69.78;99729.59;234694;1204;138468;-63
2021/10/14 05:08:14;;;;;;;35.60;22.50;;;;;;;6.70;69.84;99733.83;234706;1204;140088;-60
2021/10/14 05:13:17;;;;;;;88.10;60.00;;;;;;;6.63;69.82;99733.54;234194;1203;140907;-61
2021/10/14 05:18:20;;;;;;;34.90;21.40;;;;;;;6.72;70.20;99736.23;234494;1204;140117;-63
2021/10/14 05:23:23;;;;;;;33.20;22.10;;;;;;;6.80;70.03;99738.05;234636;1203;139015;-64
2021/10/14 05:28:26;;;;;;;33.10;22.50;;;;;;;6.78;70.01;99742.88;234593;1204;138776;-63
2021/10/14 05:33:29;;;;;;;32.20;22.50;;;;;;;6.75;69.87;99748.12;234106;1204;138723;-63
2021/10/14 05:38:32;;;;;;;34.30;22.50;;;;;;;6.73;69.90;99751.19;234128;1203;139125;-62
2021/10/14 05:43:35;;;;;;;236.80;141.60;;;;;;;6.73;69.89;99753.98;234701;1203;140237;-60
2021/10/14 05:48:39;;;;;;;31.40;22.50;;;;;;;6.86;70.39;99758.29;234571;1204;140464;-63
2021/10/14 05:53:42;;;;;;;33.20;21.10;;;;;;;6.92;69.83;99766.23;234638;1203;138856;-63
2021/10/14 05:58:45;;;;;;;26.70;19.70;;;;;;;6.83;69.69;99769.87;234831;1204;138621;-61
2021/10/14 06:03:48;;;;;;;28.70;18.40;;;;;;;6.73;69.59;99774.64;234706;1203;139006;-64
2021/10/14 06:08:51;;;;;;;31.50;18.40;;;;;;;6.66;69.76;99775.38;234128;1204;141174;-62
2021/10/14 06:13:56;;;;;;;27.30;18.50;;;;;;;6.62;69.74;99784.70;234289;1204;139966;-63
2021/10/14 06:18:59;;;;;;;28.60;18.80;;;;;;;6.54;69.92;99784.97;234656;1204;140268;-61
2021/10/14 06:24:03;;;;;;;29.50;18.30;;;;;;;6.50;70.06;99784.77;234710;1204;138647;-65
2021/10/14 06:29:06;;;;;;;32.60;21.30;;;;;;;6.46;70.15;99782.25;234589;1204;138843;-63
2021/10/14 06:34:09;;;;;;;26.40;18.80;;;;;;;6.53;70.22;99779.02;234759;1204;139157;-64
2021/10/14 06:39:12;;;;;;;28.70;19.80;;;;;;;6.57;70.23;99779.74;234698;1203;138929;-61
2021/10/14 06:44:15;;;;;;;26.20;17.60;;;;;;;6.61;70.19;99781.57;234649;1203;139348;-63
2021/10/14 06:49:18;;;;;;;28.50;19.90;;;;;;;6.68;70.32;99783.10;234290;1203;138920;-62
2021/10/14 06:54:23;;;;;;;31.10;20.50;;;;;;;6.71;70.09;99789.52;234604;1204;138829;-62
2021/10/14 06:59:25;;;;;;;34.30;21.90;;;;;;;6.76;70.29;99779.64;234583;1204;138933;-65
2021/10/14 07:04:28;;;;;;;34.30;21.90;;;;;;;6.85;70.27;99784.42;234788;1203;138830;-64
2021/10/14 07:09:32;;;;;;;36.60;22.40;;;;;;;6.94;70.31;99785.89;234612;1203;139050;-63
2021/10/14 07:14:35;;;;;;;35.20;23.20;;;;;;;6.99;70.01;99789.96;234525;1203;138504;-62
2021/10/14 07:19:38;;;;;;;51.10;34.00;;;;;;;7.06;70.16;99792.02;233838;1204;139295;-63
2021/10/14 07:24:41;;;;;;;40.20;23.60;;;;;;;7.24;70.52;99787.45;234257;1203;139567;-62
2021/10/14 07:29:43;;;;;;;39.20;24.00;;;;;;;7.38;70.04;99785.36;234315;1204;138535;-62
2021/10/14 07:34:47;;;;;;;34.10;22.20;;;;;;;7.40;69.82;99784.08;234801;1203;138962;-64
2021/10/14 07:39:50;;;;;;;86.10;54.50;;;;;;;7.36;69.58;99785.09;234698;1203;139249;-62
2021/10/14 07:44:53;;;;;;;37.40;22.70;;;;;;;7.46;69.97;99782.58;234421;1204;138697;-63
2021/10/14 07:49:56;;;;;;;40.40;23.60;;;;;;;7.56;69.61;99780.80;234559;1204;139577;-59
2021/10/14 07:54:59;;;;;;;32.10;19.90;;;;;;;7.61;69.45;99778.49;234617;1204;139832;-62
2021/10/14 08:00:05;;;;;;;32.50;19.50;;;;;;;7.68;69.09;99778.45;234402;1204;139187;-61
2021/10/14 08:05:13;;;;;;;32.80;19.50;;;;;;;7.71;69.23;99779.54;234452;1203;138800;-61
2021/10/14 08:10:16;;;;;;;37.80;21.50;;;;;;;7.80;69.29;99775.63;234433;1203;139179;-62
2021/10/14 08:15:19;;;;;;;45.60;21.30;;;;;;;7.91;69.32;99777.70;234236;1204;138427;-63
2021/10/14 08:20:23;;;;;;;33.40;20.20;;;;;;;7.98;69.01;99778.48;234510;1204;139320;-63
2021/10/14 08:25:26;;;;;;;34.80;19.40;;;;;;;8.01;68.75;99781.54;233707;1205;138944;-64
2021/10/14 08:30:29;;;;;;;38.10;21.10;;;;;;;8.03;68.69;99778.99;234650;1204;139674;-65
2021/10/14 08:35:35;;;;;;;38.90;22.50;;;;;;;8.08;68.75;99777.22;234446;1204;139968;-64
2021/10/14 08:40:40;;;;;;;36.50;20.70;;;;;;;8.11;68.61;99780.77;234659;1203;138696;-63
2021/10/14 08:45:45;;;;;;;34.60;22.20;;;;;;;8.07;68.36;99782.70;234615;1204;138794;-64
2021/10/14 08:50:49;;;;;;;;;;;;;;;8.13;68.62;99778.23;234579;1204;139101;-61
2021/10/14 08:55:52;;;;;;;29.80;19.70;;;;;;;8.25;68.64;99775.63;234620;1204;125194;-62
2021/10/14 09:01:09;;;;;;;33.00;19.00;;;;;;;8.39;68.86;99774.17;234474;1204;138820;-62
2021/10/14 09:06:14;;;;;;;125.80;84.30;;;;;;;8.45;68.16;99768.83;234451;1204;139547;-63
2021/10/14 09:11:28;;;;;;;34.90;17.40;;;;;;;8.59;68.92;99774.08;234469;1205;139062;-63
2021/10/14 09:16:41;;;;;;;27.00;16.70;;;;;;;8.71;68.33;99768.75;234385;1204;140822;-61
2021/10/14 09:22:02;;;;;;;24.90;15.20;;;;;;;8.87;68.40;99762.98;234568;1205;139008;-62
2021/10/14 09:27:08;;;;;;;29.10;16.60;;;;;;;8.96;67.81;99761.32;234576;1204;138748;-61
2021/10/14 09:32:18;;;;;;;27.50;16.70;;;;;;;9.02;67.78;99761.77;234460;1204;138441;-62
2021/10/14 09:37:23;;;;;;;21.60;13.40;;;;;;;9.15;67.74;99758.91;234536;1204;140933;-63
2021/10/14 09:43:01;;;;;;;21.20;13.50;;;;;;;9.23;67.37;99755.70;234565;1205;138750;-63
2021/10/14 09:48:05;;;;;;;26.40;12.90;;;;;;;9.32;66.98;99752.64;234423;1204;139200;-63
2021/10/14 09:53:14;;;;;;;24.20;13.70;;;;;;;9.42;67.01;99753.27;234572;1205;139502;-61
2021/10/14 09:58:18;;;;;;;30.00;12.50;;;;;;;9.55;67.21;99750.02;234705;1204;139016;-62
2021/10/14 10:03:23;;;;;;;21.70;12.00;;;;;;;9.75;67.32;99747.31;234523;1205;138646;-63
2021/10/14 10:08:36;;;;;;;23.40;12.90;;;;;;;9.92;67.02;99748.45;234564;1204;138794;-61
2021/10/14 10:13:45;;;;;;;25.40;14.00;;;;;;;10.15;67.10;99748.54;234469;1205;138849;-62
2021/10/14 10:18:50;;;;;;;18.70;11.10;;;;;;;10.41;66.80;99745.57;234570;1203;138990;-60
2021/10/14 10:23:53;;;;;;;16.80;10.40;;;;;;;10.54;66.01;99738.48;234575;1204;140850;-60
2021/10/14 10:28:56;;;;;;;16.60;9.70;;;;;;;10.58;65.48;99736.34;234474;1204;139388;-62
2021/10/14 10:34:01;;;;;;;16.10;10.80;;;;;;;10.63;65.01;99721.02;234565;1203;140931;-62
2021/10/14 10:39:04;;;;;;;16.50;10.50;;;;;;;10.75;64.76;99712.98;234613;1204;139725;-63
2021/10/14 10:44:07;;;;;;;12.40;8.00;;;;;;;10.90;64.97;99710.00;233809;1204;138999;-63
2021/10/14 10:49:17;;;;;;;14.60;9.20;;;;;;;11.11;64.49;99703.59;234553;1204;138361;-63
2021/10/14 10:54:40;;;;;;;13.00;7.10;;;;;;;11.30;63.31;99694.39;234600;1204;138764;-62
2021/10/14 10:59:43;;;;;;;11.30;6.90;;;;;;;11.37;62.62;99690.05;234449;1204;138956;-63
2021/10/14 11:04:49;;;;;;;12.70;7.20;;;;;;;11.37;61.94;99680.67;234611;1203;138693;-63
2021/10/14 11:10:29;;;;;;;13.00;7.40;;;;;;;11.42;61.69;99673.64;233674;1203;139136;-62
2021/10/14 11:15:56;;;;;;;11.30;7.40;;;;;;;11.46;61.28;99669.67;233952;1203;138984;-62
2021/10/14 11:21:11;;;;;;;13.50;7.40;;;;;;;11.55;61.40;99662.29;233981;1203;140841;-61
2021/10/14 11:26:53;;;;;;;11.30;5.80;;;;;;;11.64;60.90;99657.66;233731;1205;140057;-64
2021/10/14 11:32:06;;;;;;;9.60;5.10;;;;;;;11.72;60.67;99650.10;233994;1204;138996;-61
2021/10/14 11:37:11;;;;;;;6.40;4.10;;;;;;;11.74;60.05;99645.73;234365;1204;138588;-62
2021/10/14 11:42:19;;;;;;;7.40;4.30;;;;;;;11.72;59.42;99639.26;233973;1204;138844;-63
2021/10/14 11:47:24;;;;;;;5.50;3.40;;;;;;;11.75;58.38;99639.46;234423;1204;138898;-59
2021/10/14 11:52:27;;;;;;;7.20;4.10;;;;;;;11.78;57.66;99632.16;234607;1196;138947;-61
2021/10/14 11:57:32;;;;;;;9.90;4.80;;;;;;;11.84;58.04;99630.44;234599;1204;139063;-60
2021/10/14 12:02:37;;;;;;;6.80;3.90;;;;;;;11.88;58.13;99630.73;234590;1204;138628;-60
2021/10/14 12:07:43;;;;;;;7.90;4.80;;;;;;;11.95;57.89;99629.80;234611;1204;138462;-62
2021/10/14 12:12:46;;;;;;;19.90;12.40;;;;;;;12.51;61.34;99625.74;234581;1203;138664;-59
2021/10/14 12:17:51;;;;;;;11.20;5.10;;;;;;;13.68;61.54;99621.98;234539;1203;138774;-60
2021/10/14 12:22:57;;;;;;;8.30;4.20;;;;;;;14.09;58.27;99620.47;234446;1203;138841;-63
2021/10/14 12:28:00;;;;;;;;;;;;;;;13.75;56.54;99615.46;234617;1203;139086;-61
2021/10/14 12:33:09;;;;;;;6.80;3.70;;;;;;;13.37;55.76;99617.38;234509;1203;128500;-61
2021/10/14 12:38:14;;;;;;;4.90;2.80;;;;;;;13.16;55.74;99608.90;234605;1203;138658;-61
2021/10/14 12:43:23;;;;;;;4.20;2.60;;;;;;;12.95;55.23;99605.77;234558;1203;138771;-61
2021/10/14 12:53:40;;;;;;;6.10;3.70;;;;;;;12.71;55.13;99596.90;234513;1204;138453;-61
2021/10/14 12:58:46;;;;;;;5.60;3.20;;;;;;;12.66;54.98;99593.85;234712;1204;139121;-62
2021/10/14 13:03:50;;;;;;;8.50;3.30;;;;;;;12.60;54.84;99591.23;234207;1204;139737;-63
2021/10/14 13:08:57;;;;;;;5.60;3.70;;;;;;;12.60;54.99;99584.08;234604;1203;138614;-63
2021/10/14 13:14:03;;;;;;;7.50;3.60;;;;;;;12.56;54.87;99576.86;234618;1203;139676;-61
2021/10/14 13:19:07;;;;;;;4.10;2.90;;;;;;;12.55;54.83;99577.80;234118;1204;138739;-61
2021/10/14 13:24:10;;;;;;;7.80;3.40;;;;;;;12.51;54.30;99570.92;234559;1203;138416;-62
2021/10/14 13:29:14;;;;;;;9.90;3.50;;;;;;;12.46;54.33;99559.69;234703;1203;138927;-61
2021/10/14 13:34:17;;;;;;;9.30;4.00;;;;;;;12.43;54.60;99558.80;234645;1203;139039;-61
2021/10/14 13:39:20;;;;;;;10.60;4.10;;;;;;;12.41;54.80;99551.94;234560;1203;138631;-61
2021/10/14 13:44:28;;;;;;;5.40;3.50;;;;;;;12.38;54.80;99553.05;234106;1203;139304;-61
2021/10/14 13:49:31;;;;;;;6.80;3.20;;;;;;;12.35;54.25;99550.94;233908;1203;138184;-60
2021/10/14 13:54:34;;;;;;;3.30;2.10;;;;;;;12.34;54.26;99545.81;234220;1204;138489;-61
2021/10/14 13:59:37;;;;;;;4.30;2.00;;;;;;;12.35;53.76;99544.35;234567;1203;138898;-61
2021/10/14 14:04:40;;;;;;;3.90;2.50;;;;;;;12.32;53.35;99542.58;234677;1204;138769;-60
2021/10/14 14:09:43;;;;;;;4.40;2.50;;;;;;;12.30;53.38;99538.59;234331;1204;138313;-61
2021/10/14 14:14:46;;;;;;;5.30;2.30;;;;;;;12.29;52.95;99535.08;234523;1203;138628;-61
2021/10/14 14:19:49;;;;;;;75.70;50.20;;;;;;;12.24;52.62;99527.16;234540;1196;139289;-62
2021/10/14 14:24:52;;;;;;;10.40;4.50;;;;;;;12.28;52.74;99528.56;234589;1203;138687;-60
2021/10/14 14:29:58;;;;;;;7.70;2.50;;;;;;;12.28;52.30;99524.45;234565;1203;139172;-60
2021/10/14 14:35:02;;;;;;;4.80;2.20;;;;;;;12.27;51.94;99526.64;234618;1203;138368;-62
2021/10/14 14:40:07;;;;;;;5.50;2.20;;;;;;;12.23;51.57;99526.02;234507;1204;139080;-61
2021/10/14 14:45:10;;;;;;;3.60;2.00;;;;;;;12.19;51.60;99520.25;234618;1203;138543;-60
2021/10/14 14:55:28;;;;;;;5.40;2.00;;;;;;;12.08;51.13;99525.14;234544;1203;138795;-61
2021/10/14 15:00:32;;;;;;;6.90;2.50;;;;;;;12.03;51.26;99517.65;234569;1203;139075;-61
2021/10/14 15:05:35;;;;;;;5.70;2.10;;;;;;;12.01;51.36;99516.17;234508;1203;139075;-62
2021/10/14 15:10:40;;;;;;;5.10;2.10;;;;;;;11.99;51.00;99525.87;234559;1204;138877;-62
2021/10/14 15:15:43;;;;;;;4.60;2.30;;;;;;;11.97;51.34;99523.89;234224;1204;139106;-60
2021/10/14 15:20:47;;;;;;;6.70;2.60;;;;;;;11.94;51.11;99516.58;234532;1205;138583;-61
2021/10/14 15:25:50;;;;;;;6.90;2.90;;;;;;;11.90;51.67;99516.65;234574;1204;138760;-61
2021/10/14 15:30:57;;;;;;;9.80;3.20;;;;;;;11.87;51.35;99516.11;234352;1204;138582;-63
2021/10/14 15:36:08;;;;;;;9.40;2.70;;;;;;;11.85;51.41;99517.82;234208;1204;138804;-62
2021/10/14 15:41:14;;;;;;;8.20;4.30;;;;;;;11.86;51.39;99519.39;234741;1204;138247;-59
2021/10/14 15:46:17;;;;;;;5.20;3.00;;;;;;;11.89;51.52;99516.86;234279;1204;138605;-62
2021/10/14 15:51:20;;;;;;;9.90;3.00;;;;;;;11.91;51.72;99518.38;234475;1204;138784;-63
2021/10/14 15:56:27;;;;;;;8.00;3.50;;;;;;;11.84;51.55;99514.31;234594;1205;138552;-64
2021/10/14 16:01:35;;;;;;;8.20;3.30;;;;;;;11.78;51.53;99514.66;234592;1204;138546;-63
2021/10/14 16:06:39;;;;;;;317.70;198.50;;;;;;;11.72;51.50;99514.49;234463;1204;139147;-61
2021/10/14 16:11:42;;;;;;;13.10;6.90;;;;;;;11.93;52.81;99510.05;234559;1204;139449;-61
2021/10/14 16:16:47;;;;;;;;;;;;;;;12.10;52.05;99514.19;234783;1204;139329;-61
2021/10/14 16:21:51;;;;;;;10.90;3.60;;;;;;;11.99;51.66;99513.78;234303;1203;124834;-61
2021/10/14 16:26:56;;;;;;;9.80;3.80;;;;;;;11.85;51.55;99506.24;234357;1204;138608;-61
2021/10/14 16:32:01;;;;;;;15.50;3.70;;;;;;;11.73;51.44;99512.98;233888;1205;138755;-60
2021/10/14 16:37:07;;;;;;;13.00;4.00;;;;;;;11.65;51.60;99514.38;233927;1205;138720;-62
2021/10/14 16:42:11;;;;;;;8.80;3.60;;;;;;;11.54;51.76;99516.91;234221;1205;140151;-62
2021/10/14 16:47:16;;;;;;;9.60;4.20;;;;;;;11.48;51.95;99514.45;234053;1205;138839;-59
2021/10/14 16:52:19;;;;;;;11.80;4.30;;;;;;;11.39;51.99;99514.64;234011;1205;138774;-60
2021/10/14 16:57:22;;;;;;;12.70;4.90;;;;;;;11.29;52.12;99518.73;234232;1205;140996;-60
2021/10/14 17:02:25;;;;;;;11.30;5.20;;;;;;;11.19;52.19;99525.05;234323;1205;138833;-62
2021/10/14 17:07:28;;;;;;;15.10;6.70;;;;;;;11.09;52.24;99523.45;233856;1205;138646;-60
2021/10/14 17:12:32;;;;;;;12.30;5.60;;;;;;;10.99;52.27;99522.58;234215;1204;138992;-60
2021/10/14 17:17:36;;;;;;;13.10;7.80;;;;;;;10.95;52.87;99525.82;233531;1205;139223;-60
2021/10/14 17:38:27;;;;;;;15.90;7.00;;;;;;;10.73;53.60;99524.04;233946;1205;138825;-61
2021/10/14 17:48:40;;;;;;;19.00;7.40;;;;;;;10.60;53.81;99522.07;234179;1204;138230;-59
2021/10/14 17:53:45;;;;;;;18.50;8.30;;;;;;;10.53;53.63;99524.21;233840;1205;139277;-60
2021/10/14 17:58:48;;;;;;;17.80;8.40;;;;;;;10.47;53.87;99526.85;234146;1204;139536;-61
2021/10/14 18:40:45;;;;;;;21.50;11.60;;;;;;;10.28;55.73;99527.38;234003;1204;139358;-61
2021/10/14 18:45:53;;;;;;;21.60;11.40;;;;;;;10.25;55.68;99520.20;234159;1205;138769;-62
2021/10/14 18:50:58;;;;;;;20.10;10.60;;;;;;;10.19;56.01;99513.05;234182;1205;139003;-62
2021/10/14 18:56:01;;;;;;;24.10;12.40;;;;;;;10.09;55.87;99520.30;234240;1205;138665;-61
2021/10/14 19:01:07;;;;;;;452.40;351.10;;;;;;;10.03;56.17;99520.27;234233;1205;139102;-61
2021/10/14 19:06:20;;;;;;;35.10;20.10;;;;;;;10.14;56.64;99515.80;234171;1205;139611;-61
2021/10/14 19:17:08;;;;;;;24.10;13.70;;;;;;;10.01;56.25;99516.67;234289;1204;138976;-62
2021/10/14 20:22:04;;;;;;;31.10;16.80;;;;;;;9.46;57.32;99505.09;234155;1204;138741;-61
2021/10/14 20:27:09;;;;;;;29.20;16.80;;;;;;;9.42;57.50;99507.98;233193;1205;140150;-62
2021/10/14 20:32:14;;;;;;;32.60;16.50;;;;;;;9.37;57.45;99507.14;234102;1206;138884;-65
2021/10/14 20:37:17;;;;;;;29.60;16.40;;;;;;;9.30;57.59;99504.86;234316;1205;138886;-63
2021/10/14 20:42:20;;;;;;;29.40;16.90;;;;;;;9.25;57.75;99500.48;234219;1204;138994;-62
2021/10/14 20:47:23;;;;;;;29.70;16.00;;;;;;;9.20;57.68;99499.30;234048;1204;138958;-63
2021/10/14 20:52:32;;;;;;;33.70;17.30;;;;;;;9.19;57.87;99492.99;234281;1204;139869;-60
2021/10/14 21:02:49;;;;;;;42.60;22.80;;;;;;;9.22;58.17;99489.67;234230;1204;139057;-61
2021/10/14 21:07:54;;;;;;;29.30;17.00;;;;;;;9.33;58.28;99487.17;234289;1204;138993;-62
2021/10/14 21:12:57;;;;;;;29.80;15.90;;;;;;;9.32;58.21;99480.88;234215;1204;138612;-62
2021/10/14 21:18:02;;;;;;;29.20;15.80;;;;;;;9.26;58.09;99477.98;234353;1204;138694;-63
2021/10/14 21:23:09;;;;;;;30.10;15.90;;;;;;;9.23;58.21;99479.34;234388;1204;139377;-63
2021/10/14 21:38:37;;;;;;;30.80;16.10;;;;;;;9.22;58.62;99482.03;234307;1204;138766;-60
2021/10/14 21:43:40;;;;;;;26.90;14.70;;;;;;;9.25;58.48;99485.27;234277;1204;138988;-61
2021/10/14 21:48:43;;;;;;;27.30;14.90;;;;;;;9.25;58.25;99488.98;234292;1204;139496;-63
2021/10/14 21:53:47;;;;;;;28.10;14.80;;;;;;;9.25;58.07;99490.59;234247;1204;140916;-60
2021/10/14 21:58:50;;;;;;;25.10;14.20;;;;;;;9.26;58.10;99485.95;233952;1204;138473;-60
2021/10/14 22:03:53;;;;;;;29.60;14.80;;;;;;;9.26;58.44;99482.21;233424;1204;139245;-60
2021/10/14 22:09:01;;;;;;;23.20;13.30;;;;;;;9.24;58.52;99479.30;233861;1205;140120;-61
2021/10/14 22:14:05;;;;;;;22.80;12.30;;;;;;;9.23;58.34;99478.82;234216;1203;138649;-60
2021/10/14 22:19:12;;;;;;;22.20;11.80;;;;;;;9.19;58.36;99469.61;234164;1204;139009;-65
2021/10/14 22:24:19;;;;;;;24.00;11.60;;;;;;;9.16;58.35;99464.83;234187;1204;139131;-59
2021/10/14 22:29:23;;;;;;;20.30;11.70;;;;;;;9.12;58.49;99466.58;234324;1205;139717;-59
2021/10/14 22:34:27;;;;;;;18.90;11.20;;;;;;;9.10;58.50;99469.55;234267;1205;139525;-60
2021/10/14 22:39:33;;;;;;;21.60;11.50;;;;;;;9.10;58.47;99464.21;234191;1204;138657;-59
2021/10/14 22:44:37;;;;;;;23.80;13.30;;;;;;;9.12;58.65;99466.45;234084;1205;139204;-59
2021/10/14 22:49:47;;;;;;;18.80;9.10;;;;;;;9.12;58.49;99461.48;234320;1204;138298;-57
2021/10/14 22:54:51;;;;;;;18.00;10.20;;;;;;;9.12;58.57;99462.54;234245;1204;138265;-59
2021/10/14 22:59:56;;;;;;;89.00;50.30;;;;;;;9.13;58.66;99456.66;234423;1204;138071;-58
2021/10/14 23:05:00;;;;;;;17.70;9.70;;;;;;;9.19;58.70;99453.33;233811;1204;138596;-64
2021/10/14 23:10:11;;;;;;;16.30;9.60;;;;;;;9.18;58.86;99455.31;234408;1205;138894;-61
2021/10/14 23:15:19;;;;;;;15.40;8.30;;;;;;;9.17;58.84;99453.96;234331;1204;138378;-61
2021/10/14 23:20:38;;;;;;;16.90;8.90;;;;;;;9.19;58.75;99451.23;234267;1203;140503;-60
2021/10/14 23:25:45;;;;;;;13.40;8.20;;;;;;;9.22;58.73;99448.76;234423;1204;139340;-60
2021/10/14 23:30:49;;;;;;;16.10;8.30;;;;;;;9.23;58.99;99449.61;234349;1205;138925;-61
2021/10/14 23:35:53;;;;;;;14.90;8.00;;;;;;;9.23;58.93;99444.10;234336;1205;138695;-60
2021/10/14 23:40:57;;;;;;;14.40;8.30;;;;;;;9.26;59.10;99436.38;234463;1204;138847;-59
2021/10/14 23:46:01;;;;;;;14.50;8.20;;;;;;;9.25;58.88;99434.27;234570;1203;138168;-62
2021/10/14 23:51:05;;;;;;;16.10;8.60;;;;;;;9.24;59.15;99432.58;234216;1204;139705;-59
2021/10/14 23:56:09;;;;;;;14.20;7.90;;;;;;;9.22;59.18;99432.80;234246;1203;139136;-58
